sensor_id;sensor_type;location;lat;lon;timestamp;temperature;humidity
31661;DHT22;18267;52.234;7.444;2023-04-01T00:00:28;11.80;99.90
31661;DHT22;18267;52.234;7.444;2023-04-01T00:02:54;11.80;99.90
31661;DHT22;18267;52.234;7.444;2023-04-01T00:05:20;11.80;99.90
31661;DHT22;18267;52.234;7.444;2023-04-01T00:07:46;11.70;99.90
31661;DHT22;18267;52.234;7.444;2023-04-01T00:10:14;11.70;99.90
31661;DHT22;18267;52.234;7.444;2023-04-01T00:12:40;11.70;99.90
31661;DHT22;18267;52.234;7.444;2023-04-01T00:15:08;11.80;99.90
31661;DHT22;18267;52.234;7.444;2023-04-01T00:17:35;11.80;99.90
31661;DHT22;18267;52.234;7.444;2023-04-01T00:20:02;11.70;99.90
31661;DHT22;18267;52.234;7.444;2023-04-01T00:22:28;11.80;99.90
31661;DHT22;18267;52.234;7.444;2023-04-01T00:24:54;11.80;99.90
31661;DHT22;18267;52.234;7.444;2023-04-01T00:27:19;11.80;99.90
31661;DHT22;18267;52.234;7.444;2023-04-01T00:29:46;11.80;99.90
31661;DHT22;18267;52.234;7.444;2023-04-01T00:32:13;11.80;99.90
31661;DHT22;18267;52.234;7.444;2023-04-01T00:34:39;11.80;99.90
31661;DHT22;18267;52.234;7.444;2023-04-01T00:37:05;11.70;99.90
31661;DHT22;18267;52.234;7.444;2023-04-01T00:39:32;11.70;99.90
31661;DHT22;18267;52.234;7.444;2023-04-01T00:41:58;11.60;99.90
31661;DHT22;18267;52.234;7.444;2023-04-01T00:44:26;11.70;99.90
31661;DHT22;18267;52.234;7.444;2023-04-01T00:46:53;11.70;99.90
31661;DHT22;18267;52.234;7.444;2023-04-01T00:49:20;11.70;99.90
31661;DHT22;18267;52.234;7.444;2023-04-01T00:51:51;11.70;99.90
31661;DHT22;18267;52.234;7.444;2023-04-01T00:54:17;11.70;99.90
31661;DHT22;18267;52.234;7.444;2023-04-01T00:57:00;11.70;99.90
31661;DHT22;18267;52.234;7.444;2023-04-01T00:59:34;11.70;99.90
31661;DHT22;18267;52.234;7.444;2023-04-01T01:02:04;11.70;99.90
31661;DHT22;18267;52.234;7.444;2023-04-01T01:04:33;11.70;99.90
31661;DHT22;18267;52.234;7.444;2023-04-01T01:17:44;11.70;99.90
31661;DHT22;18267;52.234;7.444;2023-04-01T01:20:24;11.70;99.90
31661;DHT22;18267;52.234;7.444;2023-04-01T01:31:29;11.70;99.90
31661;DHT22;18267;52.234;7.444;2023-04-01T01:37:09;11.70;99.90
31661;DHT22;18267;52.234;7.444;2023-04-01T01:39:37;11.70;99.90
31661;DHT22;18267;52.234;7.444;2023-04-01T01:42:06;11.80;99.90
31661;DHT22;18267;52.234;7.444;2023-04-01T01:44:35;11.80;99.90
31661;DHT22;18267;52.234;7.444;2023-04-01T01:47:02;11.70;99.90
31661;DHT22;18267;52.234;7.444;2023-04-01T01:49:30;11.70;99.90
31661;DHT22;18267;52.234;7.444;2023-04-01T01:51:57;11.60;99.90
31661;DHT22;18267;52.234;7.444;2023-04-01T01:54:23;11.70;99.90
31661;DHT22;18267;52.234;7.444;2023-04-01T01:56:51;11.70;99.90
31661;DHT22;18267;52.234;7.444;2023-04-01T01:59:21;11.80;99.90
31661;DHT22;18267;52.234;7.444;2023-04-01T02:01:51;11.80;99.90
31661;DHT22;18267;52.234;7.444;2023-04-01T02:04:18;11.70;99.90
31661;DHT22;18267;52.234;7.444;2023-04-01T02:06:50;11.80;99.90
31661;DHT22;18267;52.234;7.444;2023-04-01T02:09:20;11.70;99.90
31661;DHT22;18267;52.234;7.444;2023-04-01T02:11:52;11.70;99.90
31661;DHT22;18267;52.234;7.444;2023-04-01T02:14:27;11.60;99.90
31661;DHT22;18267;52.234;7.444;2023-04-01T02:16:59;11.60;99.90
31661;DHT22;18267;52.234;7.444;2023-04-01T02:19:33;11.50;99.90
31661;DHT22;18267;52.234;7.444;2023-04-01T02:22:03;11.50;99.90
31661;DHT22;18267;52.234;7.444;2023-04-01T02:24:32;11.40;99.90
31661;DHT22;18267;52.234;7.444;2023-04-01T02:27:00;11.50;99.90
31661;DHT22;18267;52.234;7.444;2023-04-01T02:29:26;11.50;99.90
31661;DHT22;18267;52.234;7.444;2023-04-01T02:31:53;11.60;99.90
31661;DHT22;18267;52.234;7.444;2023-04-01T02:34:20;11.50;99.90
31661;DHT22;18267;52.234;7.444;2023-04-01T02:36:48;11.50;99.90
31661;DHT22;18267;52.234;7.444;2023-04-01T02:39:14;11.50;99.90
31661;DHT22;18267;52.234;7.444;2023-04-01T02:41:44;11.50;99.90
31661;DHT22;18267;52.234;7.444;2023-04-01T02:44:12;11.40;99.90
31661;DHT22;18267;52.234;7.444;2023-04-01T02:46:38;11.40;99.90
31661;DHT22;18267;52.234;7.444;2023-04-01T02:49:05;11.40;99.90
31661;DHT22;18267;52.234;7.444;2023-04-01T02:51:31;11.40;99.90
31661;DHT22;18267;52.234;7.444;2023-04-01T02:53:56;11.40;99.90
31661;DHT22;18267;52.234;7.444;2023-04-01T02:56:24;11.50;99.90
31661;DHT22;18267;52.234;7.444;2023-04-01T02:58:50;11.50;99.90
31661;DHT22;18267;52.234;7.444;2023-04-01T03:01:16;11.40;99.90
31661;DHT22;18267;52.234;7.444;2023-04-01T03:03:42;11.40;99.90
31661;DHT22;18267;52.234;7.444;2023-04-01T03:06:09;11.40;99.90
31661;DHT22;18267;52.234;7.444;2023-04-01T03:08:35;11.50;99.90
31661;DHT22;18267;52.234;7.444;2023-04-01T03:11:02;11.50;99.90
31661;DHT22;18267;52.234;7.444;2023-04-01T03:13:28;11.40;99.90
31661;DHT22;18267;52.234;7.444;2023-04-01T03:15:54;11.50;99.90
31661;DHT22;18267;52.234;7.444;2023-04-01T03:18:19;11.40;99.90
31661;DHT22;18267;52.234;7.444;2023-04-01T03:20:45;11.40;99.90
31661;DHT22;18267;52.234;7.444;2023-04-01T03:23:11;11.50;99.90
31661;DHT22;18267;52.234;7.444;2023-04-01T03:25:37;11.40;99.90
31661;DHT22;18267;52.234;7.444;2023-04-01T03:28:03;11.40;99.90
31661;DHT22;18267;52.234;7.444;2023-04-01T03:30:29;11.50;99.90
31661;DHT22;18267;52.234;7.444;2023-04-01T03:32:58;11.40;99.90
31661;DHT22;18267;52.234;7.444;2023-04-01T03:35:24;11.50;99.90
31661;DHT22;18267;52.234;7.444;2023-04-01T03:37:51;11.50;99.90
31661;DHT22;18267;52.234;7.444;2023-04-01T03:40:17;11.40;99.90
31661;DHT22;18267;52.234;7.444;2023-04-01T03:42:43;11.40;99.90
31661;DHT22;18267;52.234;7.444;2023-04-01T03:45:09;11.50;99.90
31661;DHT22;18267;52.234;7.444;2023-04-01T03:47:35;11.50;99.90
31661;DHT22;18267;52.234;7.444;2023-04-01T03:50:01;11.50;99.90
31661;DHT22;18267;52.234;7.444;2023-04-01T03:52:26;11.50;99.90
31661;DHT22;18267;52.234;7.444;2023-04-01T03:54:52;11.50;99.90
31661;DHT22;18267;52.234;7.444;2023-04-01T03:57:18;11.60;99.90
31661;DHT22;18267;52.234;7.444;2023-04-01T03:59:44;11.60;99.90
31661;DHT22;18267;52.234;7.444;2023-04-01T04:02:10;11.50;99.90
31661;DHT22;18267;52.234;7.444;2023-04-01T04:04:35;11.50;99.90
31661;DHT22;18267;52.234;7.444;2023-04-01T04:07:01;11.60;99.90
31661;DHT22;18267;52.234;7.444;2023-04-01T04:09:30;11.60;99.90
31661;DHT22;18267;52.234;7.444;2023-04-01T04:11:56;11.70;99.90
31661;DHT22;18267;52.234;7.444;2023-04-01T04:14:23;11.60;99.90
31661;DHT22;18267;52.234;7.444;2023-04-01T04:16:49;11.60;99.90
31661;DHT22;18267;52.234;7.444;2023-04-01T04:19:14;11.50;99.90
31661;DHT22;18267;52.234;7.444;2023-04-01T04:21:41;11.50;99.90
31661;DHT22;18267;52.234;7.444;2023-04-01T04:24:07;11.60;99.90
31661;DHT22;18267;52.234;7.444;2023-04-01T04:26:33;11.60;99.90
31661;DHT22;18267;52.234;7.444;2023-04-01T04:29:00;11.50;99.90
31661;DHT22;18267;52.234;7.444;2023-04-01T04:31:27;11.40;99.90
31661;DHT22;18267;52.234;7.444;2023-04-01T04:33:53;11.40;99.90
31661;DHT22;18267;52.234;7.444;2023-04-01T04:36:19;11.40;99.90
31661;DHT22;18267;52.234;7.444;2023-04-01T04:38:45;11.50;99.90
31661;DHT22;18267;52.234;7.444;2023-04-01T04:41:15;11.50;99.90
31661;DHT22;18267;52.234;7.444;2023-04-01T04:43:42;11.50;99.90
31661;DHT22;18267;52.234;7.444;2023-04-01T04:46:13;11.60;99.90
31661;DHT22;18267;52.234;7.444;2023-04-01T04:48:38;11.60;99.90
31661;DHT22;18267;52.234;7.444;2023-04-01T04:51:04;11.60;99.90
31661;DHT22;18267;52.234;7.444;2023-04-01T04:53:30;11.60;99.90
31661;DHT22;18267;52.234;7.444;2023-04-01T04:55:56;11.60;99.90
31661;DHT22;18267;52.234;7.444;2023-04-01T04:58:22;11.70;99.90
31661;DHT22;18267;52.234;7.444;2023-04-01T05:00:48;11.60;99.90
31661;DHT22;18267;52.234;7.444;2023-04-01T05:03:13;11.60;99.90
31661;DHT22;18267;52.234;7.444;2023-04-01T05:05:39;11.50;99.90
31661;DHT22;18267;52.234;7.444;2023-04-01T05:08:06;11.50;99.90
31661;DHT22;18267;52.234;7.444;2023-04-01T05:10:31;11.50;99.90
31661;DHT22;18267;52.234;7.444;2023-04-01T05:12:57;11.50;99.90
31661;DHT22;18267;52.234;7.444;2023-04-01T05:15:23;11.50;99.90
31661;DHT22;18267;52.234;7.444;2023-04-01T05:17:49;11.50;99.90
31661;DHT22;18267;52.234;7.444;2023-04-01T05:20:15;11.50;99.90
31661;DHT22;18267;52.234;7.444;2023-04-01T05:22:42;11.50;99.90
31661;DHT22;18267;52.234;7.444;2023-04-01T05:25:07;11.50;99.90
31661;DHT22;18267;52.234;7.444;2023-04-01T05:27:33;11.50;99.90
31661;DHT22;18267;52.234;7.444;2023-04-01T05:30:00;11.40;99.90
31661;DHT22;18267;52.234;7.444;2023-04-01T05:32:25;11.50;99.90
31661;DHT22;18267;52.234;7.444;2023-04-01T05:34:53;11.50;99.90
31661;DHT22;18267;52.234;7.444;2023-04-01T05:37:19;11.60;99.90
31661;DHT22;18267;52.234;7.444;2023-04-01T05:39:45;11.60;99.90
31661;DHT22;18267;52.234;7.444;2023-04-01T05:42:11;11.70;99.90
31661;DHT22;18267;52.234;7.444;2023-04-01T05:44:36;11.60;99.90
31661;DHT22;18267;52.234;7.444;2023-04-01T05:47:03;11.70;99.90
31661;DHT22;18267;52.234;7.444;2023-04-01T05:49:29;11.70;99.90
31661;DHT22;18267;52.234;7.444;2023-04-01T05:51:56;11.70;99.90
31661;DHT22;18267;52.234;7.444;2023-04-01T05:54:22;11.60;99.90
31661;DHT22;18267;52.234;7.444;2023-04-01T05:56:49;11.60;99.90
31661;DHT22;18267;52.234;7.444;2023-04-01T05:59:14;11.70;99.90
31661;DHT22;18267;52.234;7.444;2023-04-01T06:01:40;11.60;99.90
31661;DHT22;18267;52.234;7.444;2023-04-01T06:04:09;11.50;99.90
31661;DHT22;18267;52.234;7.444;2023-04-01T06:06:35;11.60;99.90
31661;DHT22;18267;52.234;7.444;2023-04-01T06:09:17;11.60;99.90
31661;DHT22;18267;52.234;7.444;2023-04-01T06:14:39;11.70;99.90
31661;DHT22;18267;52.234;7.444;2023-04-01T06:17:26;11.80;99.90
31661;DHT22;18267;52.234;7.444;2023-04-01T06:25:29;11.80;99.90
31661;DHT22;18267;52.234;7.444;2023-04-01T06:28:04;11.90;99.90
31661;DHT22;18267;52.234;7.444;2023-04-01T06:44:39;11.80;99.90
31661;DHT22;18267;52.234;7.444;2023-04-01T06:50:19;11.90;99.90
31661;DHT22;18267;52.234;7.444;2023-04-01T06:55:36;11.90;99.90
31661;DHT22;18267;52.234;7.444;2023-04-01T06:58:06;12.00;99.90
31661;DHT22;18267;52.234;7.444;2023-04-01T07:00:46;12.10;99.90
31661;DHT22;18267;52.234;7.444;2023-04-01T07:06:03;12.10;99.90
31661;DHT22;18267;52.234;7.444;2023-04-01T07:08:41;12.10;99.90
31661;DHT22;18267;52.234;7.444;2023-04-01T07:11:24;12.20;99.90
31661;DHT22;18267;52.234;7.444;2023-04-01T07:14:31;12.20;99.90
31661;DHT22;18267;52.234;7.444;2023-04-01T07:17:23;12.30;99.90
31661;DHT22;18267;52.234;7.444;2023-04-01T07:22:38;12.30;99.90
31661;DHT22;18267;52.234;7.444;2023-04-01T07:25:15;12.30;99.90
31661;DHT22;18267;52.234;7.444;2023-04-01T07:27:45;12.30;99.90
31661;DHT22;18267;52.234;7.444;2023-04-01T07:30:18;12.30;99.90
31661;DHT22;18267;52.234;7.444;2023-04-01T07:32:56;12.40;99.90
31661;DHT22;18267;52.234;7.444;2023-04-01T07:38:26;12.30;99.90
31661;DHT22;18267;52.234;7.444;2023-04-01T07:44:23;12.40;99.90
31661;DHT22;18267;52.234;7.444;2023-04-01T07:49:55;12.50;99.90
31661;DHT22;18267;52.234;7.444;2023-04-01T07:56:09;12.70;99.90
31661;DHT22;18267;52.234;7.444;2023-04-01T08:04:54;13.10;99.90
31661;DHT22;18267;52.234;7.444;2023-04-01T08:07:38;13.10;99.90
31661;DHT22;18267;52.234;7.444;2023-04-01T08:10:32;13.10;99.90
31661;DHT22;18267;52.234;7.444;2023-04-01T08:13:20;13.20;99.90
31661;DHT22;18267;52.234;7.444;2023-04-01T08:15:57;13.40;99.90
31661;DHT22;18267;52.234;7.444;2023-04-01T08:18:43;13.60;99.90
31661;DHT22;18267;52.234;7.444;2023-04-01T08:22:03;13.60;99.90
31661;DHT22;18267;52.234;7.444;2023-04-01T08:24:17;13.60;99.90
31661;DHT22;18267;52.234;7.444;2023-04-01T08:26:49;13.60;99.90
31661;DHT22;18267;52.234;7.444;2023-04-01T08:29:29;13.60;99.90
31661;DHT22;18267;52.234;7.444;2023-04-01T08:32:03;13.60;99.90
31661;DHT22;18267;52.234;7.444;2023-04-01T08:34:36;13.70;99.90
31661;DHT22;18267;52.234;7.444;2023-04-01T08:37:17;13.80;99.90
31661;DHT22;18267;52.234;7.444;2023-04-01T09:01:46;14.40;99.90
31661;DHT22;18267;52.234;7.444;2023-04-01T09:04:45;14.60;99.90
31661;DHT22;18267;52.234;7.444;2023-04-01T09:26:53;14.00;99.90
31661;DHT22;18267;52.234;7.444;2023-04-01T09:35:15;13.80;99.90
31661;DHT22;18267;52.234;7.444;2023-04-01T09:38:11;13.90;99.90
31661;DHT22;18267;52.234;7.444;2023-04-01T09:43:39;14.10;99.90
31661;DHT22;18267;52.234;7.444;2023-04-01T10:04:17;14.90;99.90
31661;DHT22;18267;52.234;7.444;2023-04-01T10:29:44;14.50;99.90
31661;DHT22;18267;52.234;7.444;2023-04-01T10:32:58;14.70;99.90
31661;DHT22;18267;52.234;7.444;2023-04-01T10:47:11;15.50;99.90
31661;DHT22;18267;52.234;7.444;2023-04-01T11:12:21;13.90;99.90
31661;DHT22;18267;52.234;7.444;2023-04-01T11:26:43;13.50;99.90
31661;DHT22;18267;52.234;7.444;2023-04-01T11:35:38;13.80;99.90
31661;DHT22;18267;52.234;7.444;2023-04-01T11:38:34;14.00;99.90
31661;DHT22;18267;52.234;7.444;2023-04-01T11:41:26;13.90;99.90
31661;DHT22;18267;52.234;7.444;2023-04-01T11:44:21;14.00;99.90
31661;DHT22;18267;52.234;7.444;2023-04-01T11:55:19;13.60;99.90
31661;DHT22;18267;52.234;7.444;2023-04-01T11:57:51;13.60;99.90
31661;DHT22;18267;52.234;7.444;2023-04-01T12:09:31;13.60;99.90
31661;DHT22;18267;52.234;7.444;2023-04-01T12:26:19;13.30;99.90
31661;DHT22;18267;52.234;7.444;2023-04-01T12:38:07;13.00;99.90
31661;DHT22;18267;52.234;7.444;2023-04-01T12:44:12;13.10;99.90
31661;DHT22;18267;52.234;7.444;2023-04-01T12:46:31;13.20;99.90
31661;DHT22;18267;52.234;7.444;2023-04-01T12:52:11;12.90;99.90
31661;DHT22;18267;52.234;7.444;2023-04-01T12:58:06;12.70;99.90
31661;DHT22;18267;52.234;7.444;2023-04-01T13:09:26;12.80;99.90
31661;DHT22;18267;52.234;7.444;2023-04-01T13:23:46;12.50;99.90
31661;DHT22;18267;52.234;7.444;2023-04-01T13:26:37;12.60;99.90
31661;DHT22;18267;52.234;7.444;2023-04-01T13:34:44;12.90;99.90
31661;DHT22;18267;52.234;7.444;2023-04-01T13:43:14;12.80;99.90
31661;DHT22;18267;52.234;7.444;2023-04-01T13:45:58;12.70;99.90
31661;DHT22;18267;52.234;7.444;2023-04-01T13:51:15;12.60;99.90
31661;DHT22;18267;52.234;7.444;2023-04-01T13:54:21;12.50;99.90
31661;DHT22;18267;52.234;7.444;2023-04-01T14:02:51;12.30;99.90
31661;DHT22;18267;52.234;7.444;2023-04-01T14:38:04;12.40;99.90
31661;DHT22;18267;52.234;7.444;2023-04-01T14:49:42;12.60;99.90
31661;DHT22;18267;52.234;7.444;2023-04-01T14:55:28;12.60;99.90
31661;DHT22;18267;52.234;7.444;2023-04-01T14:58:04;12.50;99.90
31661;DHT22;18267;52.234;7.444;2023-04-01T15:08:38;12.40;99.90
31661;DHT22;18267;52.234;7.444;2023-04-01T15:11:28;12.40;99.90
31661;DHT22;18267;52.234;7.444;2023-04-01T15:17:40;12.20;99.90
31661;DHT22;18267;52.234;7.444;2023-04-01T15:20:22;12.20;99.90
31661;DHT22;18267;52.234;7.444;2023-04-01T15:23:31;12.10;99.90
31661;DHT22;18267;52.234;7.444;2023-04-01T15:28:50;11.80;99.90
31661;DHT22;18267;52.234;7.444;2023-04-01T15:39:57;11.60;99.90
31661;DHT22;18267;52.234;7.444;2023-04-01T15:51:20;11.50;99.90
31661;DHT22;18267;52.234;7.444;2023-04-01T15:54:06;11.20;99.90
31661;DHT22;18267;52.234;7.444;2023-04-01T15:57:13;11.20;99.90
31661;DHT22;18267;52.234;7.444;2023-04-01T16:05:25;11.00;99.90
31661;DHT22;18267;52.234;7.444;2023-04-01T16:22:03;10.90;99.90
31661;DHT22;18267;52.234;7.444;2023-04-01T16:24:51;10.90;99.90
31661;DHT22;18267;52.234;7.444;2023-04-01T16:38:22;10.60;99.90
31661;DHT22;18267;52.234;7.444;2023-04-01T16:43:50;10.60;99.90
31661;DHT22;18267;52.234;7.444;2023-04-01T16:46:39;10.60;99.90
31661;DHT22;18267;52.234;7.444;2023-04-01T16:51:48;10.60;99.90
31661;DHT22;18267;52.234;7.444;2023-04-01T16:54:44;10.60;99.90
31661;DHT22;18267;52.234;7.444;2023-04-01T16:57:21;10.60;99.90
31661;DHT22;18267;52.234;7.444;2023-04-01T17:02:57;10.50;99.90
31661;DHT22;18267;52.234;7.444;2023-04-01T17:10:57;10.30;99.90
31661;DHT22;18267;52.234;7.444;2023-04-01T17:19:16;10.10;99.90
31661;DHT22;18267;52.234;7.444;2023-04-01T17:27:55;10.10;99.90
31661;DHT22;18267;52.234;7.444;2023-04-01T17:30:38;10.00;99.90
31661;DHT22;18267;52.234;7.444;2023-04-01T17:33:20;10.10;99.90
31661;DHT22;18267;52.234;7.444;2023-04-01T17:44:28;9.80;99.90
31661;DHT22;18267;52.234;7.444;2023-04-01T17:49:56;9.60;99.90
31661;DHT22;18267;52.234;7.444;2023-04-01T18:06:39;9.70;99.90
31661;DHT22;18267;52.234;7.444;2023-04-01T18:12:07;9.60;99.90
31661;DHT22;18267;52.234;7.444;2023-04-01T18:20:33;9.30;99.90
31661;DHT22;18267;52.234;7.444;2023-04-01T18:25:45;9.20;99.90
31661;DHT22;18267;52.234;7.444;2023-04-01T18:28:32;9.20;99.90
31661;DHT22;18267;52.234;7.444;2023-04-01T18:37:01;9.10;99.90
31661;DHT22;18267;52.234;7.444;2023-04-01T18:39:40;9.10;99.90
31661;DHT22;18267;52.234;7.444;2023-04-01T18:42:38;9.10;99.90
31661;DHT22;18267;52.234;7.444;2023-04-01T18:45:17;9.00;99.90
31661;DHT22;18267;52.234;7.444;2023-04-01T18:48:08;9.00;99.90
31661;DHT22;18267;52.234;7.444;2023-04-01T18:50:43;9.00;99.90
31661;DHT22;18267;52.234;7.444;2023-04-01T18:56:02;9.10;99.90
31661;DHT22;18267;52.234;7.444;2023-04-01T18:58:42;9.00;99.90
31661;DHT22;18267;52.234;7.444;2023-04-01T19:01:33;8.90;99.90
31661;DHT22;18267;52.234;7.444;2023-04-01T19:04:05;8.80;99.90
31661;DHT22;18267;52.234;7.444;2023-04-01T19:06:48;8.80;99.90
31661;DHT22;18267;52.234;7.444;2023-04-01T19:10:07;8.80;99.90
31661;DHT22;18267;52.234;7.444;2023-04-01T19:15:29;8.70;99.90
31661;DHT22;18267;52.234;7.444;2023-04-01T19:18:08;8.70;99.90
31661;DHT22;18267;52.234;7.444;2023-04-01T19:20:51;8.70;99.90
31661;DHT22;18267;52.234;7.444;2023-04-01T19:26:24;8.60;99.90
31661;DHT22;18267;52.234;7.444;2023-04-01T19:29:16;8.50;99.90
31661;DHT22;18267;52.234;7.444;2023-04-01T19:34:41;8.40;99.90
31661;DHT22;18267;52.234;7.444;2023-04-01T19:37:38;8.40;99.90
31661;DHT22;18267;52.234;7.444;2023-04-01T19:45:32;8.50;99.90
31661;DHT22;18267;52.234;7.444;2023-04-01T19:50:55;8.40;99.90
31661;DHT22;18267;52.234;7.444;2023-04-01T19:56:23;8.50;99.90
31661;DHT22;18267;52.234;7.444;2023-04-01T20:02:38;8.60;99.90
31661;DHT22;18267;52.234;7.444;2023-04-01T20:05:28;8.50;99.90
31661;DHT22;18267;52.234;7.444;2023-04-01T20:08:06;8.40;99.90
31661;DHT22;18267;52.234;7.444;2023-04-01T20:10:58;8.40;99.90
31661;DHT22;18267;52.234;7.444;2023-04-01T20:17:00;8.30;99.90
31661;DHT22;18267;52.234;7.444;2023-04-01T20:28:20;8.30;99.90
31661;DHT22;18267;52.234;7.444;2023-04-01T20:42:34;8.00;99.90
31661;DHT22;18267;52.234;7.444;2023-04-01T21:07:55;7.90;99.90
31661;DHT22;18267;52.234;7.444;2023-04-01T21:19:02;7.80;99.90
31661;DHT22;18267;52.234;7.444;2023-04-01T21:24:32;7.90;99.90
31661;DHT22;18267;52.234;7.444;2023-04-01T21:27:29;7.90;99.90
31661;DHT22;18267;52.234;7.444;2023-04-01T21:40:42;7.80;99.90
31661;DHT22;18267;52.234;7.444;2023-04-01T22:00:24;7.40;99.90
31661;DHT22;18267;52.234;7.444;2023-04-01T22:16:48;7.30;99.90
31661;DHT22;18267;52.234;7.444;2023-04-01T22:19:37;7.30;99.90
31661;DHT22;18267;52.234;7.444;2023-04-01T22:22:16;7.10;99.90
31661;DHT22;18267;52.234;7.444;2023-04-01T22:27:41;7.10;99.90
31661;DHT22;18267;52.234;7.444;2023-04-01T22:30:24;7.10;99.90
31661;DHT22;18267;52.234;7.444;2023-04-01T22:44:01;7.00;99.90
31661;DHT22;18267;52.234;7.444;2023-04-01T22:49:31;6.90;99.90
31661;DHT22;18267;52.234;7.444;2023-04-01T22:52:23;6.90;99.90
31661;DHT22;18267;52.234;7.444;2023-04-01T22:54:58;7.00;99.90
31661;DHT22;18267;52.234;7.444;2023-04-01T23:00:38;6.90;99.90
31661;DHT22;18267;52.234;7.444;2023-04-01T23:03:23;7.00;99.90
31661;DHT22;18267;52.234;7.444;2023-04-01T23:05:59;6.90;99.90
31661;DHT22;18267;52.234;7.444;2023-04-01T23:08:40;6.80;99.90
31661;DHT22;18267;52.234;7.444;2023-04-01T23:19:46;6.60;99.90
31661;DHT22;18267;52.234;7.444;2023-04-01T23:28:36;6.60;99.90
31661;DHT22;18267;52.234;7.444;2023-04-01T23:31:20;6.60;99.90
31661;DHT22;18267;52.234;7.444;2023-04-01T23:33:54;6.60;99.90
31661;DHT22;18267;52.234;7.444;2023-04-01T23:36:21;6.60;99.90
31661;DHT22;18267;52.234;7.444;2023-04-01T23:38:48;6.50;99.90
31661;DHT22;18267;52.234;7.444;2023-04-01T23:41:27;6.60;99.90
31661;DHT22;18267;52.234;7.444;2023-04-01T23:44:12;6.60;99.90
31661;DHT22;18267;52.234;7.444;2023-04-01T23:46:40;6.50;99.90
31661;DHT22;18267;52.234;7.444;2023-04-01T23:49:13;6.40;99.90
31661;DHT22;18267;52.234;7.444;2023-04-01T23:52:31;6.50;99.90
31661;DHT22;18267;52.234;7.444;2023-04-01T23:54:44;6.40;99.90
31661;DHT22;18267;52.234;7.444;2023-04-01T23:57:20;6.50;99.90
